createdAt,value
2018-12-03T00:04:46.909Z,7.3
2018-12-03T00:15:01.111Z,6.9
2018-12-03T00:25:15.444Z,6.5
2018-12-03T00:35:30.399Z,6.4
2018-12-03T00:45:44.693Z,6.1
2018-12-03T00:55:59.586Z,5.9
2018-12-03T01:06:13.662Z,5.5
2018-12-03T01:16:27.520Z,5.3
2018-12-03T01:26:41.519Z,5.2
2018-12-03T01:36:56.409Z,4.9
2018-12-03T01:47:10.195Z,4.6
2018-12-03T01:57:24.373Z,4.4
2018-12-03T02:07:39.641Z,3.7
2018-12-03T02:17:54.220Z,3.5
2018-12-03T02:28:09.474Z,3.5
2018-12-03T02:38:23.796Z,3.5
2018-12-03T02:48:38.801Z,3.2
2018-12-03T02:58:53.217Z,3
2018-12-03T03:09:07.773Z,2.8
2018-12-03T03:19:21.603Z,2.6
2018-12-03T03:29:35.911Z,2.3
2018-12-03T03:39:50.635Z,2
2018-12-03T03:50:05.854Z,2.1
2018-12-03T04:00:19.591Z,2.2
2018-12-03T04:10:34.346Z,2.2
2018-12-03T04:20:48.299Z,3
2018-12-03T04:31:03.900Z,4.2
2018-12-03T04:41:18.233Z,4.3
2018-12-03T04:51:33.130Z,4.4
2018-12-03T05:01:47.942Z,4.5
2018-12-03T05:12:03.087Z,4.4
2018-12-03T05:22:17.708Z,4.8
2018-12-03T15:21:17.549Z,47.8
2018-12-03T15:31:32.722Z,36.3
2018-12-03T15:41:46.892Z,35.4
2018-12-03T15:52:00.626Z,34.9
2018-12-03T16:02:15.741Z,31.2
2018-12-03T16:12:29.855Z,27.5
2018-12-03T16:22:44.524Z,27.6
2018-12-03T16:33:00.156Z,27.2
2018-12-03T16:43:14.871Z,27.1
2018-12-03T16:53:30.315Z,27.9
2018-12-03T17:03:44.076Z,27.5
2018-12-03T17:13:58.968Z,25.5
2018-12-03T17:24:12.877Z,23.9
2018-12-03T17:34:26.663Z,24.1
2018-12-03T17:44:41.085Z,22.6
2018-12-03T17:54:55.769Z,22.1
2018-12-03T18:05:10.178Z,21.5
2018-12-03T18:15:25.237Z,21
2018-12-03T18:25:39.372Z,19.3
2018-12-03T18:35:54.459Z,18.5
2018-12-03T18:46:10.007Z,18.6
2018-12-03T18:56:23.738Z,19.6
2018-12-03T19:06:38.243Z,20.6
2018-12-03T19:16:53.052Z,21.3
2018-12-03T19:27:08.082Z,22.1
2018-12-03T19:37:21.950Z,24.3
2018-12-03T19:47:36.941Z,25.9
2018-12-03T19:57:51.715Z,27.7
2018-12-03T20:08:05.463Z,24.7
2018-12-03T20:18:19.492Z,20.9
2018-12-03T20:28:35.124Z,19.4
2018-12-03T20:38:49.935Z,22.9
2018-12-03T20:49:04.208Z,24.2
2018-12-03T20:59:19.147Z,24.8
2018-12-03T21:09:33.584Z,24.9
2018-12-03T21:19:48.802Z,25.7
2018-12-03T21:30:03.271Z,24.6
2018-12-03T21:40:18.151Z,27.7
2018-12-03T21:50:32.296Z,24.7
2018-12-03T22:00:47.609Z,22.2
2018-12-03T22:11:01.660Z,20.7
2018-12-03T22:21:16.703Z,29.6
2018-12-03T22:31:31.333Z,24.4
2018-12-03T22:41:46.502Z,20.8
2018-12-03T22:52:01.347Z,22
2018-12-03T23:02:15.790Z,24.1
2018-12-03T23:12:31.267Z,32.5
2018-12-03T23:22:46.164Z,30.8
2018-12-03T23:32:59.860Z,31.8
2018-12-03T23:43:14.717Z,32.5
2018-12-03T23:53:28.403Z,31.7
